Houston, Texas
Traffic Map
Current Weather Conditions
Houston, Texas
Overcast
Overcast
12°
Feels Like: 12°
Wind Chill: 12° Ceiling: 2600
Heat Index: 12° Visibility: mi
Dew Point: Wind: 0mph
Humidity: 77% Direction: ° ()
Pressure: 30.1in Gusts: 0mph
Raw Report DataKMCJ 211615Z AUTO 00000KT OVC026 12/08 A3010 RMK AO1
Traffic Incident Summary
Active as of:
Severity:
Category:
InformationThere was an issue retrieving the traffic information for this location. Please try a different location or try again shortly.
Advertisements
Track Severe Weather on mobile